createdAt,value
2019-03-15T00:00:28.112Z,64.51
2019-03-15T00:02:59.567Z,65.18
2019-03-15T00:05:31.614Z,64.78
2019-03-15T00:08:03.236Z,64.78
2019-03-15T00:10:35.030Z,64.99
2019-03-15T00:13:06.487Z,65.48
2019-03-15T00:15:38.270Z,64.38
2019-03-15T00:18:09.760Z,64.38
2019-03-15T00:20:41.578Z,64.55
2019-03-15T00:23:13.372Z,64.53
2019-03-15T00:25:45.111Z,64.53
2019-03-15T00:28:17.978Z,64.50
2019-03-15T00:30:49.730Z,64.71
2019-03-15T00:33:21.514Z,64.66
2019-03-15T00:35:53.180Z,64.66
2019-03-15T00:38:25.027Z,64.14
2019-03-15T00:40:56.901Z,64.14
2019-03-15T00:43:28.602Z,64.80
2019-03-15T00:46:00.108Z,64.80
2019-03-15T00:48:31.970Z,64.66
2019-03-15T00:51:03.699Z,64.66
2019-03-15T00:53:35.404Z,65.15
2019-03-15T00:56:07.119Z,65.03
2019-03-15T00:58:38.860Z,64.71
2019-03-15T01:01:10.594Z,64.71
2019-03-15T01:03:42.323Z,65.21
2019-03-15T01:06:14.064Z,65.21
2019-03-15T01:08:45.555Z,65.00
2019-03-15T01:11:17.128Z,65.37
2019-03-15T01:13:49.084Z,65.65
2019-03-15T01:16:20.485Z,65.34
2019-03-15T01:18:52.389Z,65.34
2019-03-15T01:21:23.979Z,65.88
2019-03-15T01:23:55.776Z,65.88
2019-03-15T01:26:27.237Z,66.14
2019-03-15T01:28:59.122Z,66.14
2019-03-15T01:31:30.541Z,65.50
2019-03-15T01:34:02.164Z,64.40
2019-03-15T01:36:33.742Z,64.40
2019-03-15T01:39:05.940Z,59.50
2019-03-15T01:41:37.262Z,59.50
2019-03-15T01:44:08.700Z,58.63
2019-03-15T01:46:40.830Z,58.63
2019-03-15T01:49:12.383Z,58.37
2019-03-15T01:51:44.038Z,58.44
2019-03-15T01:54:16.749Z,57.30
2019-03-15T01:56:48.268Z,57.30
2019-03-15T01:59:20.056Z,57.27
2019-03-15T02:01:51.628Z,57.27
2019-03-15T02:04:23.419Z,57.57
2019-03-15T02:06:55.121Z,59.09
2019-03-15T02:09:26.596Z,59.50
2019-03-15T02:11:58.560Z,58.75
2019-03-15T02:14:29.826Z,57.23
2019-03-15T02:17:01.177Z,57.23
2019-03-15T02:19:32.607Z,57.38
2019-03-15T02:22:04.283Z,56.99
2019-03-15T02:24:36.263Z,57.38
2019-03-15T02:27:08.175Z,57.16
2019-03-15T02:29:39.884Z,57.45
2019-03-15T02:32:12.859Z,57.45
2019-03-15T02:34:44.688Z,56.71
2019-03-15T02:37:19.985Z,56.99
2019-03-15T02:39:51.885Z,56.42
2019-03-15T02:42:23.763Z,57.09
2019-03-15T02:44:56.177Z,57.09
2019-03-15T02:47:28.018Z,57.02
2019-03-15T02:50:00.638Z,56.72
2019-03-15T02:52:32.830Z,57.10
2019-03-15T02:55:04.565Z,57.79
2019-03-15T02:57:37.290Z,58.22
2019-03-15T03:00:09.314Z,58.22
2019-03-15T03:02:41.151Z,58.32
2019-03-15T03:05:13.035Z,58.70
2019-03-15T03:07:44.742Z,58.37
2019-03-15T03:10:16.618Z,57.93
2019-03-15T03:12:49.065Z,58.45
2019-03-15T03:15:20.933Z,58.44
2019-03-15T03:17:52.676Z,58.44
2019-03-15T03:20:24.437Z,58.68
2019-03-15T03:22:55.940Z,58.49
2019-03-15T03:25:27.504Z,58.28
2019-03-15T03:27:59.540Z,58.51
2019-03-15T03:30:32.601Z,58.51
2019-03-15T03:33:04.293Z,58.43
2019-03-15T03:35:36.128Z,58.36
2019-03-15T03:38:07.912Z,57.63
2019-03-15T03:40:39.433Z,57.63
2019-03-15T03:43:11.380Z,58.07
2019-03-15T03:45:43.062Z,57.76
2019-03-15T03:48:15.818Z,57.76
2019-03-15T03:50:48.146Z,58.24
2019-03-15T03:53:19.783Z,58.09
2019-03-15T03:55:51.714Z,58.09
2019-03-15T03:58:23.916Z,57.38
2019-03-15T04:00:55.337Z,57.16
2019-03-15T04:03:27.400Z,57.16
2019-03-15T04:05:59.343Z,55.94
2019-03-15T04:08:30.755Z,55.94
2019-03-15T04:11:02.385Z,55.87
2019-03-15T04:13:34.307Z,55.39
2019-03-15T04:16:06.091Z,55.14
2019-03-15T04:18:37.909Z,55.11
2019-03-15T04:21:09.462Z,55.95
2019-03-15T04:23:41.371Z,56.29
2019-03-15T04:26:12.947Z,56.29
2019-03-15T04:28:44.690Z,55.51
2019-03-15T04:31:16.172Z,54.38
2019-03-15T04:33:47.806Z,54.38
2019-03-15T04:36:19.530Z,53.93
2019-03-15T04:38:51.529Z,54.87
2019-03-15T04:41:23.302Z,54.77
2019-03-15T04:43:55.114Z,54.57
2019-03-15T04:46:27.084Z,54.33
2019-03-15T04:48:58.397Z,54.33
2019-03-15T04:51:29.810Z,53.73
2019-03-15T04:54:01.675Z,53.53
2019-03-15T04:56:33.493Z,52.73
2019-03-15T04:59:05.358Z,52.73
2019-03-15T05:01:37.550Z,52.05
2019-03-15T05:04:09.274Z,53.15
2019-03-15T05:06:41.365Z,52.88
2019-03-15T05:09:13.204Z,52.63
2019-03-15T05:11:45.063Z,53.27
2019-03-15T05:14:17.032Z,52.46
2019-03-15T05:16:49.529Z,51.36
2019-03-15T05:19:22.168Z,53.29
2019-03-15T05:21:54.004Z,54.36
2019-03-15T05:24:25.654Z,53.71
2019-03-15T05:26:57.144Z,52.51
2019-03-15T05:29:28.993Z,50.05
2019-03-15T05:32:00.757Z,50.53
2019-03-15T05:34:33.381Z,50.34
2019-03-15T05:37:04.995Z,50.32
2019-03-15T05:39:37.088Z,50.11
2019-03-15T05:42:09.255Z,49.69
2019-03-15T05:44:41.591Z,49.69
2019-03-15T05:47:13.672Z,48.59
2019-03-15T05:49:45.197Z,49.38
2019-03-15T05:52:17.140Z,48.15
2019-03-15T05:54:48.878Z,48.60
2019-03-15T05:57:20.727Z,48.60
2019-03-15T05:59:53.020Z,47.39
2019-03-15T06:02:25.231Z,46.33
2019-03-15T06:04:57.926Z,46.53
2019-03-15T06:07:29.951Z,46.83
2019-03-15T06:10:01.859Z,45.91
2019-03-15T06:12:33.593Z,45.91
2019-03-15T06:15:05.920Z,44.09
2019-03-15T06:17:38.165Z,44.62
2019-03-15T06:20:10.700Z,47.47
2019-03-15T06:22:42.664Z,47.99
2019-03-15T06:25:15.232Z,41.45
2019-03-15T06:27:47.537Z,42.87
2019-03-15T06:30:19.821Z,41.43
2019-03-15T06:32:51.764Z,41.99
2019-03-15T06:35:24.031Z,41.92
2019-03-15T06:37:56.119Z,42.51
2019-03-15T06:40:28.130Z,44.18
2019-03-15T06:43:00.756Z,42.85
2019-03-15T06:45:32.582Z,42.20
2019-03-15T06:48:05.188Z,42.20
2019-03-15T06:50:39.882Z,43.86
2019-03-15T06:53:13.988Z,45.30
2019-03-15T06:55:47.358Z,45.30
2019-03-15T06:58:20.415Z,42.99
2019-03-15T07:00:54.914Z,45.96
2019-03-15T07:03:28.683Z,44.27
2019-03-15T07:06:03.135Z,44.27
2019-03-15T07:08:37.638Z,43.68
2019-03-15T07:11:12.773Z,43.25
2019-03-15T07:13:48.705Z,42.71
2019-03-15T07:16:23.986Z,41.81
2019-03-15T07:18:58.923Z,43.74
2019-03-15T07:21:36.803Z,42.98
2019-03-15T07:24:24.193Z,42.98
2019-03-15T07:26:51.610Z,44.67
2019-03-15T07:29:26.649Z,46.16
2019-03-15T07:32:02.336Z,46.35
2019-03-15T07:34:36.795Z,43.53
2019-03-15T07:37:11.541Z,43.53
2019-03-15T07:39:46.682Z,44.28
2019-03-15T07:42:18.946Z,44.97
2019-03-15T07:44:51.259Z,44.97
2019-03-15T07:47:23.302Z,44.14
2019-03-15T07:49:55.727Z,42.80
2019-03-15T07:52:28.555Z,42.67
2019-03-15T07:55:00.715Z,42.67
2019-03-15T07:57:32.713Z,41.87
2019-03-15T08:00:04.813Z,42.22
2019-03-15T08:02:36.428Z,41.72
2019-03-15T08:05:09.192Z,42.68
2019-03-15T08:07:45.153Z,42.44
2019-03-15T08:10:15.701Z,42.41
2019-03-15T08:12:49.725Z,42.41
2019-03-15T08:15:24.501Z,42.43
2019-03-15T08:17:59.375Z,43.10
2019-03-15T08:20:35.722Z,43.39
2019-03-15T08:23:11.356Z,41.55
2019-03-15T08:25:46.286Z,42.04
2019-03-15T08:28:22.138Z,41.68
2019-03-15T08:30:57.215Z,41.68
2019-03-15T08:33:32.245Z,42.22
2019-03-15T08:36:09.552Z,42.22
2019-03-15T08:38:47.893Z,42.64
2019-03-15T08:41:20.783Z,40.92
2019-03-15T08:43:55.393Z,41.89
2019-03-15T08:46:29.642Z,42.31
2019-03-15T08:49:06.249Z,42.57
2019-03-15T08:51:42.577Z,42.57
2019-03-15T08:54:17.328Z,41.74
2019-03-15T08:56:52.609Z,40.78
2019-03-15T08:59:28.730Z,40.47
2019-03-15T09:02:04.067Z,40.47
2019-03-15T09:04:38.836Z,41.12
2019-03-15T09:07:13.547Z,40.42
2019-03-15T09:09:50.559Z,41.29
2019-03-15T09:12:29.126Z,40.36
2019-03-15T09:15:04.510Z,40.96
2019-03-15T09:17:41.412Z,39.84
2019-03-15T09:20:16.822Z,39.84
2019-03-15T09:22:54.905Z,40.77
2019-03-15T09:25:29.527Z,40.77
2019-03-15T09:28:05.767Z,39.87
2019-03-15T09:30:40.289Z,37.90
2019-03-15T09:33:15.112Z,38.87
2019-03-15T09:35:50.981Z,38.79
2019-03-15T09:38:26.300Z,38.79
2019-03-15T09:41:03.415Z,36.98
2019-03-15T09:43:45.240Z,36.98
2019-03-15T09:46:21.004Z,35.20
2019-03-15T09:48:59.800Z,35.20
2019-03-15T09:51:39.266Z,34.73
2019-03-15T09:54:15.770Z,33.04
2019-03-15T09:56:57.800Z,33.04
2019-03-15T09:59:32.397Z,35.07
2019-03-15T10:02:08.435Z,36.48
2019-03-15T10:04:42.812Z,36.48
2019-03-15T10:07:19.081Z,34.87
2019-03-15T10:09:56.083Z,29.78
2019-03-15T10:12:31.192Z,29.36
2019-03-15T10:15:08.132Z,31.22
2019-03-15T10:17:47.145Z,32.25
2019-03-15T10:20:21.811Z,31.06
2019-03-15T10:23:06.126Z,31.06
2019-03-15T10:25:46.041Z,32.68
2019-03-15T10:28:11.854Z,34.28
2019-03-15T10:30:49.384Z,32.17
2019-03-15T10:33:30.491Z,32.17
2019-03-15T10:36:05.733Z,32.40
2019-03-15T10:38:43.966Z,33.55
2019-03-15T10:41:18.763Z,34.76
2019-03-15T10:43:55.176Z,33.09
2019-03-15T10:46:29.739Z,31.47
2019-03-15T10:49:04.571Z,31.47
2019-03-15T10:51:39.052Z,31.39
2019-03-15T10:54:16.320Z,31.41
2019-03-15T10:56:51.453Z,32.67
2019-03-15T10:59:26.350Z,33.81
2019-03-15T11:02:01.321Z,33.81
2019-03-15T11:04:35.630Z,34.36
2019-03-15T11:07:09.765Z,35.65
2019-03-15T11:09:42.953Z,35.65
2019-03-15T11:12:15.110Z,34.27
2019-03-15T11:14:47.060Z,34.83
2019-03-15T11:17:18.634Z,34.83
2019-03-15T11:19:50.624Z,35.59
2019-03-15T11:22:22.386Z,35.24
2019-03-15T11:24:54.332Z,36.11
2019-03-15T11:27:26.574Z,36.11
2019-03-15T11:29:58.685Z,36.43
2019-03-15T11:32:30.684Z,37.31
2019-03-15T11:35:02.705Z,37.13
2019-03-15T11:37:34.514Z,37.60
2019-03-15T11:40:07.198Z,37.60
2019-03-15T11:42:39.461Z,37.96
2019-03-15T11:45:13.649Z,37.96
2019-03-15T11:48:02.495Z,38.11
2019-03-15T11:50:24.705Z,38.31
2019-03-15T11:52:58.331Z,39.04
2019-03-15T11:55:32.200Z,39.04
2019-03-15T11:58:05.517Z,39.37
2019-03-15T12:00:38.818Z,39.38
2019-03-15T12:03:11.752Z,39.07
2019-03-15T12:05:43.742Z,39.55
2019-03-15T12:08:15.399Z,38.95
2019-03-15T12:10:47.078Z,39.46
2019-03-15T12:13:18.909Z,39.46
2019-03-15T12:15:50.596Z,40.56
2019-03-15T12:18:22.381Z,40.56
2019-03-15T12:20:54.176Z,40.62
2019-03-15T12:23:26.081Z,40.85
2019-03-15T12:25:57.725Z,41.02
2019-03-15T12:28:29.533Z,40.98
2019-03-15T12:31:01.289Z,41.16
2019-03-15T12:33:33.106Z,41.39
2019-03-15T12:36:05.071Z,41.39
2019-03-15T12:38:36.892Z,41.67
2019-03-15T12:41:08.639Z,42.09
2019-03-15T12:43:40.254Z,42.09
2019-03-15T12:46:12.012Z,42.55
2019-03-15T12:48:43.889Z,42.46
2019-03-15T12:51:15.835Z,42.29
2019-03-15T12:53:47.622Z,42.70
2019-03-15T12:56:19.230Z,42.70
2019-03-15T12:58:51.399Z,42.70
2019-03-15T13:01:22.978Z,42.96
2019-03-15T13:03:54.560Z,43.41
2019-03-15T13:06:26.234Z,43.49
2019-03-15T13:08:58.133Z,43.57
2019-03-15T13:11:30.138Z,43.79
2019-03-15T13:14:03.858Z,43.83
2019-03-15T13:16:35.531Z,43.83
2019-03-15T13:19:07.133Z,43.68
2019-03-15T13:21:38.854Z,44.19
2019-03-15T13:24:10.646Z,44.82
2019-03-15T13:26:42.229Z,44.72
2019-03-15T13:29:14.428Z,44.81
2019-03-15T13:31:45.936Z,44.75
2019-03-15T13:34:18.115Z,44.93
2019-03-15T13:36:50.243Z,44.93
2019-03-15T13:39:22.111Z,45.33
2019-03-15T13:41:54.436Z,45.32
2019-03-15T13:44:26.424Z,45.33
2019-03-15T13:46:58.131Z,45.33
2019-03-15T13:49:29.860Z,45.25
2019-03-15T13:52:01.610Z,45.05
2019-03-15T13:54:33.034Z,44.67
2019-03-15T13:57:04.729Z,44.25
2019-03-15T13:59:36.891Z,44.25
2019-03-15T14:02:11.704Z,44.48
2019-03-15T14:04:43.523Z,44.14
2019-03-15T14:07:15.270Z,44.14
2019-03-15T14:09:47.114Z,43.98
2019-03-15T14:12:19.130Z,44.00
2019-03-15T14:14:51.418Z,43.90
2019-03-15T14:17:23.127Z,43.80
2019-03-15T14:19:54.762Z,42.92
2019-03-15T14:22:26.172Z,42.92
2019-03-15T14:24:57.739Z,42.79
2019-03-15T14:27:37.502Z,42.79
2019-03-15T14:30:04.263Z,45.73
2019-03-15T14:32:35.717Z,41.67
2019-03-15T14:35:07.614Z,41.67
2019-03-15T14:37:39.218Z,41.32
2019-03-15T14:40:10.809Z,41.32
2019-03-15T14:42:42.547Z,41.57
2019-03-15T14:45:14.303Z,41.42
2019-03-15T14:47:46.124Z,41.42
2019-03-15T14:50:18.098Z,41.46
2019-03-15T14:52:49.697Z,41.75
2019-03-15T14:55:21.590Z,42.05
2019-03-15T14:57:53.730Z,41.76
2019-03-15T15:00:25.512Z,41.76
2019-03-15T15:02:57.406Z,41.99
2019-03-15T15:05:29.132Z,42.43
2019-03-15T15:08:00.935Z,42.29
2019-03-15T15:10:32.976Z,42.11
2019-03-15T15:13:04.687Z,42.11
2019-03-15T15:15:36.653Z,42.34
2019-03-15T15:18:08.063Z,42.57
2019-03-15T15:20:39.862Z,42.56
2019-03-15T15:23:11.455Z,42.60
2019-03-15T15:25:43.498Z,42.74
2019-03-15T15:28:14.977Z,42.54
2019-03-15T15:30:46.766Z,42.48
2019-03-15T15:33:19.155Z,42.40
2019-03-15T15:35:50.829Z,42.40
2019-03-15T15:38:22.436Z,42.69
2019-03-15T15:40:54.487Z,42.78
2019-03-15T15:43:27.145Z,43.01
2019-03-15T15:45:58.904Z,43.17
2019-03-15T15:48:30.350Z,43.35
2019-03-15T15:51:02.136Z,43.92
2019-03-15T15:53:33.583Z,43.94
2019-03-15T15:56:05.634Z,43.93
2019-03-15T15:58:37.038Z,43.79
2019-03-15T16:01:08.971Z,43.79
2019-03-15T16:03:41.142Z,44.39
2019-03-15T16:06:12.576Z,44.39
2019-03-15T16:08:43.747Z,44.18
2019-03-15T16:11:15.755Z,44.18
2019-03-15T16:13:47.388Z,44.37
2019-03-15T16:16:19.240Z,44.17
2019-03-15T16:18:50.888Z,44.17
2019-03-15T16:21:22.791Z,44.80
2019-03-15T16:23:55.024Z,44.95
2019-03-15T16:26:29.046Z,45.29
2019-03-15T16:29:00.514Z,45.80
2019-03-15T16:31:32.297Z,46.07
2019-03-15T16:34:04.610Z,46.32
2019-03-15T16:36:36.278Z,46.27
2019-03-15T16:39:09.740Z,46.27
2019-03-15T16:41:41.266Z,46.63
2019-03-15T16:44:13.012Z,47.37
2019-03-15T16:46:44.368Z,47.07
2019-03-15T16:49:16.225Z,47.96
2019-03-15T16:51:47.482Z,47.96
2019-03-15T16:54:20.121Z,48.24
2019-03-15T16:56:51.851Z,48.13
2019-03-15T16:59:24.679Z,48.12
2019-03-15T17:01:56.158Z,48.12
2019-03-15T17:04:30.532Z,48.81
2019-03-15T17:07:01.949Z,49.22
2019-03-15T17:09:33.546Z,49.22
2019-03-15T17:12:05.061Z,49.06
2019-03-15T17:14:36.828Z,49.00
2019-03-15T17:17:09.067Z,48.96
2019-03-15T17:19:41.026Z,49.88
2019-03-15T17:22:13.837Z,49.31
2019-03-15T17:24:45.365Z,49.31
2019-03-15T17:27:17.027Z,49.89
2019-03-15T17:29:49.540Z,50.25
2019-03-15T17:32:21.048Z,50.62
2019-03-15T17:34:52.866Z,51.18
2019-03-15T17:37:24.478Z,51.18
2019-03-15T17:39:56.043Z,50.91
2019-03-15T17:42:27.452Z,50.91
2019-03-15T17:44:58.753Z,51.32
2019-03-15T17:47:30.134Z,51.58
2019-03-15T17:50:01.788Z,51.42
2019-03-15T17:52:33.353Z,51.71
2019-03-15T17:55:04.859Z,51.71
2019-03-15T17:57:36.841Z,52.05
2019-03-15T18:00:19.614Z,52.05
2019-03-15T18:02:51.268Z,52.35
2019-03-15T18:05:22.972Z,51.97
2019-03-15T18:07:55.040Z,52.20
2019-03-15T18:10:27.017Z,52.55
2019-03-15T18:12:58.685Z,52.47
2019-03-15T18:15:30.702Z,52.47
2019-03-15T18:18:02.208Z,52.55
2019-03-15T18:20:33.711Z,52.77
2019-03-15T18:23:05.460Z,52.77
2019-03-15T18:25:37.072Z,52.77
2019-03-15T18:28:08.746Z,53.09
2019-03-15T18:30:40.243Z,53.52
2019-03-15T18:33:12.002Z,53.94
2019-03-15T18:35:43.546Z,53.94
2019-03-15T18:38:15.205Z,53.34
2019-03-15T18:40:46.983Z,53.34
2019-03-15T18:43:18.728Z,53.76
2019-03-15T18:45:50.240Z,54.11
2019-03-15T18:48:22.057Z,54.11
2019-03-15T18:50:53.917Z,54.77
2019-03-15T18:53:25.639Z,54.85
2019-03-15T18:55:57.143Z,55.52
2019-03-15T18:58:29.068Z,55.17
2019-03-15T19:01:00.472Z,55.17
2019-03-15T19:03:31.880Z,55.18
2019-03-15T19:06:03.273Z,55.14
2019-03-15T19:08:34.393Z,55.14
2019-03-15T19:11:06.466Z,55.72
2019-03-15T19:13:39.141Z,55.56
2019-03-15T19:16:20.004Z,55.12
2019-03-15T19:18:44.199Z,55.12
2019-03-15T19:21:15.799Z,55.32
2019-03-15T19:23:47.529Z,55.55
2019-03-15T19:26:19.363Z,55.55
2019-03-15T19:28:50.670Z,55.67
2019-03-15T19:31:22.041Z,55.89
2019-03-15T19:33:53.278Z,56.08
2019-03-15T19:36:24.707Z,56.08
2019-03-15T19:38:56.306Z,56.08
2019-03-15T19:41:28.126Z,56.52
2019-03-15T19:43:59.517Z,56.52
2019-03-15T19:46:31.265Z,56.58
2019-03-15T19:49:02.830Z,56.13
2019-03-15T19:51:34.583Z,56.12
2019-03-15T19:54:06.365Z,56.47
2019-03-15T19:56:38.130Z,56.11
2019-03-15T19:59:09.768Z,56.11
2019-03-15T20:01:41.388Z,56.93
2019-03-15T20:04:13.098Z,56.93
2019-03-15T20:06:44.568Z,57.30
2019-03-15T20:09:16.341Z,57.30
2019-03-15T20:11:48.345Z,57.11
2019-03-15T20:14:20.088Z,57.06
2019-03-15T20:16:51.669Z,57.50
2019-03-15T20:19:23.375Z,57.50
2019-03-15T20:21:55.018Z,57.09
2019-03-15T20:24:26.456Z,57.42
2019-03-15T20:26:57.851Z,57.38
2019-03-15T20:29:30.066Z,57.39
2019-03-15T20:32:01.267Z,57.34
2019-03-15T20:34:32.609Z,57.48
2019-03-15T20:37:04.140Z,57.98
2019-03-15T20:39:35.989Z,58.61
2019-03-15T20:42:07.433Z,58.39
2019-03-15T20:44:39.147Z,58.25
2019-03-15T20:47:11.981Z,58.25
2019-03-15T20:49:43.465Z,58.02
2019-03-15T20:52:14.725Z,58.32
2019-03-15T20:54:46.175Z,58.23
2019-03-15T20:57:17.550Z,58.11
2019-03-15T20:59:48.896Z,58.29
2019-03-15T21:02:20.320Z,58.05
2019-03-15T21:04:51.658Z,58.59
2019-03-15T21:07:22.933Z,58.78
2019-03-15T21:09:54.147Z,58.50
2019-03-15T21:12:25.463Z,59.02
2019-03-15T21:14:57.023Z,59.02
2019-03-15T21:17:28.533Z,59.08
2019-03-15T21:20:00.344Z,59.12
2019-03-15T21:22:31.698Z,58.82
2019-03-15T21:25:03.147Z,59.41
2019-03-15T21:27:34.419Z,59.17
2019-03-15T21:30:06.665Z,59.25
2019-03-15T21:32:38.400Z,59.50
2019-03-15T21:35:10.213Z,59.16
2019-03-15T21:37:41.633Z,59.16
2019-03-15T21:40:13.550Z,59.49
2019-03-15T21:42:44.914Z,59.64
2019-03-15T21:45:16.723Z,59.64
2019-03-15T21:47:48.005Z,59.58
2019-03-15T21:50:19.963Z,59.58
2019-03-15T21:52:51.434Z,59.42
2019-03-15T21:55:22.696Z,59.42
2019-03-15T21:57:54.293Z,59.73
2019-03-15T22:00:25.764Z,59.73
2019-03-15T22:02:57.218Z,60.41
2019-03-15T22:05:29.142Z,60.86
2019-03-15T22:08:00.452Z,60.43
2019-03-15T22:10:31.982Z,60.43
2019-03-15T22:13:03.336Z,60.42
2019-03-15T22:15:34.816Z,60.40
2019-03-15T22:18:06.303Z,60.52
2019-03-15T22:20:38.746Z,60.52
2019-03-15T22:23:09.900Z,61.23
2019-03-15T22:25:41.322Z,61.23
2019-03-15T22:28:12.941Z,60.77
2019-03-15T22:30:44.352Z,61.07
2019-03-15T22:33:15.901Z,60.85
2019-03-15T22:35:47.800Z,61.40
2019-03-15T22:38:26.239Z,61.40
2019-03-15T22:40:52.638Z,61.34
2019-03-15T22:43:24.600Z,61.32
2019-03-15T22:45:55.806Z,61.73
2019-03-15T22:48:27.479Z,61.52
2019-03-15T22:50:58.737Z,61.93
2019-03-15T22:53:30.445Z,61.93
2019-03-15T22:56:02.012Z,61.50
2019-03-15T22:58:34.389Z,61.50
2019-03-15T23:01:06.729Z,61.64
2019-03-15T23:03:40.334Z,61.61
2019-03-15T23:06:12.750Z,61.61
2019-03-15T23:08:44.059Z,61.56
2019-03-15T23:11:15.465Z,61.43
2019-03-15T23:13:46.711Z,61.43
2019-03-15T23:16:18.443Z,61.94
2019-03-15T23:18:49.803Z,61.84
2019-03-15T23:21:21.402Z,61.84
2019-03-15T23:23:52.726Z,61.87
2019-03-15T23:26:24.096Z,61.87
2019-03-15T23:28:55.540Z,62.27
2019-03-15T23:31:26.886Z,62.75
2019-03-15T23:33:58.395Z,62.70
2019-03-15T23:36:29.632Z,62.70
2019-03-15T23:39:01.380Z,63.57
2019-03-15T23:41:33.555Z,63.13
2019-03-15T23:44:05.071Z,63.13
2019-03-15T23:46:36.455Z,62.77
2019-03-15T23:49:09.088Z,63.66
2019-03-15T23:51:40.357Z,63.66
2019-03-15T23:54:11.733Z,63.79
2019-03-15T23:56:43.126Z,63.90
2019-03-15T23:59:14.780Z,63.67
